sensor_id;sensor_type;location;lat;lon;timestamp;pressure;altitude;pressure_sealevel;temperature;humidity
58056;BME280;53159;55.152;36.614;2022-08-07T00:02:21;99784.63;;;18.58;100.00
58056;BME280;53159;55.152;36.614;2022-08-07T00:04:48;99773.25;;;18.55;100.00
58056;BME280;53159;55.152;36.614;2022-08-07T00:07:16;99775.03;;;18.54;100.00
58056;BME280;53159;55.152;36.614;2022-08-07T00:09:43;99775.91;;;18.53;100.00
58056;BME280;53159;55.152;36.614;2022-08-07T00:12:11;99781.16;;;18.53;100.00
58056;BME280;53159;55.152;36.614;2022-08-07T00:14:38;99785.56;;;18.52;100.00
58056;BME280;53159;55.152;36.614;2022-08-07T00:17:05;99789.91;;;18.55;100.00
58056;BME280;53159;55.152;36.614;2022-08-07T00:19:32;99787.31;;;18.47;100.00
58056;BME280;53159;55.152;36.614;2022-08-07T00:21:59;99775.94;;;18.45;100.00
58056;BME280;53159;55.152;36.614;2022-08-07T00:24:27;99776.81;;;18.44;100.00
58056;BME280;53159;55.152;36.614;2022-08-07T00:26:54;99768.97;;;18.40;100.00
58056;BME280;53159;55.152;36.614;2022-08-07T00:29:20;99768.97;;;18.38;100.00
58056;BME280;53159;55.152;36.614;2022-08-07T00:31:52;99769.00;;;18.33;100.00
58056;BME280;53159;55.152;36.614;2022-08-07T00:34:20;99766.38;;;18.32;100.00
58056;BME280;53159;55.152;36.614;2022-08-07T00:36:48;99764.66;;;18.29;100.00
58056;BME280;53159;55.152;36.614;2022-08-07T00:39:14;99755.91;;;18.26;100.00
58056;BME280;53159;55.152;36.614;2022-08-07T00:41:53;99761.16;;;18.23;100.00
58056;BME280;53159;55.152;36.614;2022-08-07T00:44:20;99760.31;;;18.17;100.00
58056;BME280;53159;55.152;36.614;2022-08-07T00:46:49;99758.63;;;18.09;100.00
58056;BME280;53159;55.152;36.614;2022-08-07T00:49:16;99763.88;;;18.09;100.00
58056;BME280;53159;55.152;36.614;2022-08-07T00:51:44;99764.78;;;18.00;100.00
58056;BME280;53159;55.152;36.614;2022-08-07T00:54:13;99770.91;;;17.97;100.00
58056;BME280;53159;55.152;36.614;2022-08-07T00:56:40;99762.16;;;17.89;100.00
58056;BME280;53159;55.152;36.614;2022-08-07T00:59:07;99765.69;;;17.85;100.00
58056;BME280;53159;55.152;36.614;2022-08-07T01:01:35;99763.06;;;17.83;100.00
58056;BME280;53159;55.152;36.614;2022-08-07T01:04:05;99761.31;;;17.84;100.00
58056;BME280;53159;55.152;36.614;2022-08-07T01:06:33;99759.56;;;17.81;100.00
58056;BME280;53159;55.152;36.614;2022-08-07T01:09:03;99758.72;;;17.76;100.00
58056;BME280;53159;55.152;36.614;2022-08-07T01:11:30;99764.84;;;17.70;100.00
58056;BME280;53159;55.152;36.614;2022-08-07T01:13:57;99757.88;;;17.60;100.00
58056;BME280;53159;55.152;36.614;2022-08-07T01:16:25;99758.75;;;17.54;100.00
58056;BME280;53159;55.152;36.614;2022-08-07T01:18:54;99767.50;;;17.52;100.00
58056;BME280;53159;55.152;36.614;2022-08-07T01:21:22;99764.03;;;17.56;100.00
58056;BME280;53159;55.152;36.614;2022-08-07T01:23:56;99766.66;;;17.56;100.00
58056;BME280;53159;55.152;36.614;2022-08-07T01:26:23;99767.50;;;17.58;100.00
58056;BME280;53159;55.152;36.614;2022-08-07T01:28:52;99761.41;;;17.58;100.00
58056;BME280;53159;55.152;36.614;2022-08-07T01:31:23;99758.78;;;17.50;100.00
58056;BME280;53159;55.152;36.614;2022-08-07T01:33:56;99763.16;;;17.43;100.00
58056;BME280;53159;55.152;36.614;2022-08-07T01:36:27;99771.06;;;17.40;100.00
58056;BME280;53159;55.152;36.614;2022-08-07T01:38:55;99771.03;;;17.38;100.00
58056;BME280;53159;55.152;36.614;2022-08-07T01:41:25;99771.03;;;17.43;100.00
58056;BME280;53159;55.152;36.614;2022-08-07T01:43:55;99762.28;;;17.49;100.00
58056;BME280;53159;55.152;36.614;2022-08-07T01:46:21;99764.91;;;17.52;100.00
58056;BME280;53159;55.152;36.614;2022-08-07T01:48:50;99764.03;;;17.53;100.00
58056;BME280;53159;55.152;36.614;2022-08-07T01:51:24;99764.03;;;17.53;100.00
58056;BME280;53159;55.152;36.614;2022-08-07T01:53:54;99757.88;;;17.51;100.00
58056;BME280;53159;55.152;36.614;2022-08-07T01:56:33;99757.03;;;17.50;100.00
58056;BME280;53159;55.152;36.614;2022-08-07T01:59:08;99750.94;;;17.40;100.00
58056;BME280;53159;55.152;36.614;2022-08-07T02:01:41;99755.31;;;17.42;100.00
58056;BME280;53159;55.152;36.614;2022-08-07T02:04:24;99750.94;;;17.44;100.00
58056;BME280;53159;55.152;36.614;2022-08-07T02:06:56;99752.69;;;17.46;100.00
58056;BME280;53159;55.152;36.614;2022-08-07T02:09:30;99748.28;;;17.47;100.00
58056;BME280;53159;55.152;36.614;2022-08-07T02:12:01;99751.78;;;17.47;100.00
58056;BME280;53159;55.152;36.614;2022-08-07T02:14:52;99751.78;;;17.47;100.00
58056;BME280;53159;55.152;36.614;2022-08-07T02:17:31;99744.78;;;17.48;100.00
58056;BME280;53159;55.152;36.614;2022-08-07T02:20:00;99755.28;;;17.51;100.00
58056;BME280;53159;55.152;36.614;2022-08-07T02:22:31;99757.91;;;17.52;100.00
58056;BME280;53159;55.152;36.614;2022-08-07T02:24:59;99752.66;;;17.54;100.00
58056;BME280;53159;55.152;36.614;2022-08-07T02:27:28;99753.53;;;17.58;100.00
58056;BME280;53159;55.152;36.614;2022-08-07T02:29:55;99758.78;;;17.58;100.00
58056;BME280;53159;55.152;36.614;2022-08-07T02:32:32;99758.75;;;17.62;100.00
58056;BME280;53159;55.152;36.614;2022-08-07T02:35:03;99756.97;;;17.66;100.00
58056;BME280;53159;55.152;36.614;2022-08-07T02:37:34;99756.09;;;17.76;100.00
58056;BME280;53159;55.152;36.614;2022-08-07T02:40:06;99755.19;;;17.89;100.00
58056;BME280;53159;55.152;36.614;2022-08-07T02:42:35;99749.88;;;18.03;100.00
58056;BME280;53159;55.152;36.614;2022-08-07T02:45:04;99748.91;;;18.21;100.00
58056;BME280;53159;55.152;36.614;2022-08-07T02:47:32;99754.94;;;18.37;100.00
58056;BME280;53159;55.152;36.614;2022-08-07T02:50:08;99753.06;;;18.58;100.00
58056;BME280;53159;55.152;36.614;2022-08-07T02:55:36;99752.78;;;19.05;100.00
58056;BME280;53159;55.152;36.614;2022-08-07T02:58:04;99760.41;;;19.32;100.00
58056;BME280;53159;55.152;36.614;2022-08-07T03:00:37;99754.03;;;19.57;100.00
58056;BME280;53159;55.152;36.614;2022-08-07T03:03:08;99756.41;;;19.78;100.00
58056;BME280;53159;55.152;36.614;2022-08-07T03:05:42;99756.34;;;19.88;100.00
58056;BME280;53159;55.152;36.614;2022-08-07T03:08:11;99746.56;;;19.97;100.00
58056;BME280;53159;55.152;36.614;2022-08-07T03:10:45;99752.50;;;20.12;100.00
58056;BME280;53159;55.152;36.614;2022-08-07T03:13:14;99755.81;;;20.26;100.00
58056;BME280;53159;55.152;36.614;2022-08-07T03:15:42;99755.53;;;20.48;100.00
58056;BME280;53159;55.152;36.614;2022-08-07T03:18:09;99754.31;;;20.71;99.78
58056;BME280;53159;55.152;36.614;2022-08-07T03:20:38;99747.84;;;20.92;98.89
58056;BME280;53159;55.152;36.614;2022-08-07T03:23:07;99746.09;;;20.91;98.80
58056;BME280;53159;55.152;36.614;2022-08-07T03:25:36;99749.63;;;20.91;97.96
58056;BME280;53159;55.152;36.614;2022-08-07T03:28:25;99750.09;;;21.15;98.93
58056;BME280;53159;55.152;36.614;2022-08-07T03:30:54;99749.69;;;21.37;97.97
58056;BME280;53159;55.152;36.614;2022-08-07T03:33:43;99751.03;;;21.63;96.13
58056;BME280;53159;55.152;36.614;2022-08-07T03:36:12;99753.03;;;21.94;93.60
58056;BME280;53159;55.152;36.614;2022-08-07T03:38:45;99745.44;;;22.20;92.37
58056;BME280;53159;55.152;36.614;2022-08-07T03:41:14;99739.53;;;22.50;89.69
58056;BME280;53159;55.152;36.614;2022-08-07T03:43:42;99747.81;;;22.72;88.65
58056;BME280;53159;55.152;36.614;2022-08-07T03:46:12;99747.03;;;23.05;86.08
58056;BME280;53159;55.152;36.614;2022-08-07T03:48:40;99745.19;;;23.41;83.41
58056;BME280;53159;55.152;36.614;2022-08-07T03:51:07;99750.44;;;23.76;81.31
58056;BME280;53159;55.152;36.614;2022-08-07T03:53:41;99748.47;;;24.14;80.48
58056;BME280;53159;55.152;36.614;2022-08-07T03:56:09;99744.41;;;24.32;79.79
58056;BME280;53159;55.152;36.614;2022-08-07T03:58:41;99744.13;;;24.70;77.41
58056;BME280;53159;55.152;36.614;2022-08-07T04:01:09;99743.38;;;24.93;77.09
58056;BME280;53159;55.152;36.614;2022-08-07T04:03:38;99755.31;;;25.33;74.59
58056;BME280;53159;55.152;36.614;2022-08-07T04:06:10;99751.63;;;25.63;73.21
58056;BME280;53159;55.152;36.614;2022-08-07T04:08:39;99745.06;;;25.97;70.70
58056;BME280;53159;55.152;36.614;2022-08-07T04:11:07;99747.91;;;26.16;70.29
58056;BME280;53159;55.152;36.614;2022-08-07T04:13:37;99746.66;;;26.26;67.72
58056;BME280;53159;55.152;36.614;2022-08-07T04:16:05;99745.16;;;26.19;68.38
58056;BME280;53159;55.152;36.614;2022-08-07T04:18:32;99749.44;;;25.74;68.98
58056;BME280;53159;55.152;36.614;2022-08-07T04:21:01;99748.94;;;25.64;69.32
58056;BME280;53159;55.152;36.614;2022-08-07T04:23:29;99746.44;;;25.59;70.64
58056;BME280;53159;55.152;36.614;2022-08-07T04:25:57;99752.28;;;25.69;70.38
58056;BME280;53159;55.152;36.614;2022-08-07T04:28:25;99745.81;;;25.77;71.21
58056;BME280;53159;55.152;36.614;2022-08-07T04:30:51;99740.59;;;25.97;71.61
58056;BME280;53159;55.152;36.614;2022-08-07T04:33:23;99742.72;;;26.59;70.51
58056;BME280;53159;55.152;36.614;2022-08-07T04:35:56;99735.00;;;26.95;65.80
58056;BME280;53159;55.152;36.614;2022-08-07T04:38:29;99737.56;;;27.40;62.12
58056;BME280;53159;55.152;36.614;2022-08-07T04:40:58;99746.75;;;27.74;60.65
58056;BME280;53159;55.152;36.614;2022-08-07T04:43:37;99748.53;;;28.32;57.90
58056;BME280;53159;55.152;36.614;2022-08-07T04:46:09;99745.25;;;28.83;55.83
58056;BME280;53159;55.152;36.614;2022-08-07T05:00:11;99752.69;;;28.76;52.27
58056;BME280;53159;55.152;36.614;2022-08-07T05:02:59;99769.75;;;28.91;54.17
58056;BME280;53159;55.152;36.614;2022-08-07T05:05:47;99756.03;;;28.99;54.13
58056;BME280;53159;55.152;36.614;2022-08-07T05:11:26;99757.06;;;29.14;52.78
58056;BME280;53159;55.152;36.614;2022-08-07T05:14:00;99752.88;;;29.25;53.22
58056;BME280;53159;55.152;36.614;2022-08-07T05:16:30;99759.00;;;29.27;53.35
58056;BME280;53159;55.152;36.614;2022-08-07T05:19:04;99761.28;;;29.18;52.74
58056;BME280;53159;55.152;36.614;2022-08-07T05:21:33;99754.28;;;28.98;54.11
58056;BME280;53159;55.152;36.614;2022-08-07T05:24:03;99757.09;;;28.77;54.09
58056;BME280;53159;55.152;36.614;2022-08-07T05:26:33;99763.84;;;28.84;53.58
58056;BME280;53159;55.152;36.614;2022-08-07T05:29:09;99761.09;;;28.86;54.38
58056;BME280;53159;55.152;36.614;2022-08-07T05:31:39;99767.56;;;28.99;54.29
58056;BME280;53159;55.152;36.614;2022-08-07T05:34:17;99760.25;;;29.03;54.55
58056;BME280;53159;55.152;36.614;2022-08-07T05:36:52;99769.00;;;29.06;54.57
58056;BME280;53159;55.152;36.614;2022-08-07T05:39:29;99766.72;;;29.16;54.38
58056;BME280;53159;55.152;36.614;2022-08-07T05:42:00;99766.31;;;29.06;54.12
58056;BME280;53159;55.152;36.614;2022-08-07T05:44:33;99772.84;;;29.18;53.60
58056;BME280;53159;55.152;36.614;2022-08-07T05:47:01;99781.50;;;29.23;53.38
58056;BME280;53159;55.152;36.614;2022-08-07T05:49:31;99777.31;;;29.18;51.76
58056;BME280;53159;55.152;36.614;2022-08-07T05:52:00;99773.16;;;29.12;54.01
58056;BME280;53159;55.152;36.614;2022-08-07T05:54:32;99772.41;;;28.91;54.34
58056;BME280;53159;55.152;36.614;2022-08-07T05:57:03;99774.25;;;28.90;53.43
58056;BME280;53159;55.152;36.614;2022-08-07T05:59:37;99781.44;;;28.88;55.31
58056;BME280;53159;55.152;36.614;2022-08-07T06:02:09;99778.53;;;28.75;53.06
58056;BME280;53159;55.152;36.614;2022-08-07T06:04:46;99782.38;;;28.51;53.23
58056;BME280;53159;55.152;36.614;2022-08-07T06:07:16;99771.91;;;28.46;55.26
58056;BME280;53159;55.152;36.614;2022-08-07T06:09:45;99779.53;;;28.54;57.92
58056;BME280;53159;55.152;36.614;2022-08-07T06:12:14;99776.66;;;28.58;55.91
58056;BME280;53159;55.152;36.614;2022-08-07T06:14:45;99775.31;;;28.69;55.02
58056;BME280;53159;55.152;36.614;2022-08-07T06:17:14;99775.88;;;28.75;55.03
58056;BME280;53159;55.152;36.614;2022-08-07T06:22:51;99766.19;;;28.54;54.38
58056;BME280;53159;55.152;36.614;2022-08-07T06:25:29;99776.25;;;28.29;56.77
58056;BME280;53159;55.152;36.614;2022-08-07T06:28:04;99775.38;;;28.10;55.70
58056;BME280;53159;55.152;36.614;2022-08-07T06:30:33;99773.50;;;28.12;58.02
58056;BME280;53159;55.152;36.614;2022-08-07T06:33:00;99777.84;;;28.14;58.83
58056;BME280;53159;55.152;36.614;2022-08-07T06:35:27;99774.72;;;28.05;58.88
58056;BME280;53159;55.152;36.614;2022-08-07T06:37:56;99775.56;;;28.05;60.16
58056;BME280;53159;55.152;36.614;2022-08-07T06:40:24;99765.13;;;28.01;62.20
58056;BME280;53159;55.152;36.614;2022-08-07T06:42:52;99776.28;;;27.90;59.08
58056;BME280;53159;55.152;36.614;2022-08-07T06:45:32;99768.75;;;27.98;58.41
58056;BME280;53159;55.152;36.614;2022-08-07T06:48:01;99763.03;;;28.07;58.09
58056;BME280;53159;55.152;36.614;2022-08-07T06:53:52;99764.63;;;28.30;55.18
58056;BME280;53159;55.152;36.614;2022-08-07T06:56:24;99763.81;;;28.47;56.00
58056;BME280;53159;55.152;36.614;2022-08-07T06:59:26;99758.75;;;28.60;55.40
58056;BME280;53159;55.152;36.614;2022-08-07T07:02:01;99758.28;;;28.71;55.36
58056;BME280;53159;55.152;36.614;2022-08-07T07:04:29;99761.88;;;28.70;54.45
58056;BME280;53159;55.152;36.614;2022-08-07T07:06:58;99758.47;;;28.67;53.96
58056;BME280;53159;55.152;36.614;2022-08-07T07:09:27;99759.97;;;28.72;54.51
58056;BME280;53159;55.152;36.614;2022-08-07T07:15:26;99770.25;;;28.62;55.45
58056;BME280;53159;55.152;36.614;2022-08-07T07:20:58;99770.31;;;28.80;53.33
58056;BME280;53159;55.152;36.614;2022-08-07T07:23:29;99773.44;;;28.88;54.36
58056;BME280;53159;55.152;36.614;2022-08-07T07:26:03;99766.00;;;28.95;53.77
58056;BME280;53159;55.152;36.614;2022-08-07T07:28:43;99770.00;;;29.04;53.97
58056;BME280;53159;55.152;36.614;2022-08-07T07:31:21;99765.16;;;29.12;53.74
58056;BME280;53159;55.152;36.614;2022-08-07T07:33:58;99765.78;;;29.17;52.03
58056;BME280;53159;55.152;36.614;2022-08-07T07:36:27;99767.34;;;29.21;51.79
58056;BME280;53159;55.152;36.614;2022-08-07T07:38:57;99769.38;;;29.16;51.67
58056;BME280;53159;55.152;36.614;2022-08-07T07:41:26;99761.28;;;29.18;50.76
58056;BME280;53159;55.152;36.614;2022-08-07T07:43:54;99771.88;;;29.19;49.32
58056;BME280;53159;55.152;36.614;2022-08-07T07:46:22;99767.66;;;29.15;49.91
58056;BME280;53159;55.152;36.614;2022-08-07T07:48:52;99754.78;;;29.06;49.58
58056;BME280;53159;55.152;36.614;2022-08-07T07:51:20;99758.31;;;29.06;48.86
58056;BME280;53159;55.152;36.614;2022-08-07T07:53:48;99754.69;;;29.07;48.66
58056;BME280;53159;55.152;36.614;2022-08-07T07:56:18;99756.44;;;29.08;47.69
58056;BME280;53159;55.152;36.614;2022-08-07T07:58:48;99756.66;;;29.04;49.20
58056;BME280;53159;55.152;36.614;2022-08-07T08:01:21;99755.53;;;29.08;48.33
58056;BME280;53159;55.152;36.614;2022-08-07T08:03:54;99747.47;;;29.09;48.89
58056;BME280;53159;55.152;36.614;2022-08-07T08:06:27;99755.19;;;29.16;48.28
58056;BME280;53159;55.152;36.614;2022-08-07T08:09:02;99756.81;;;29.18;48.75
58056;BME280;53159;55.152;36.614;2022-08-07T08:11:29;99754.91;;;29.20;47.27
58056;BME280;53159;55.152;36.614;2022-08-07T08:13:57;99746.03;;;29.20;47.75
58056;BME280;53159;55.152;36.614;2022-08-07T08:16:38;99754.06;;;29.20;47.82
58056;BME280;53159;55.152;36.614;2022-08-07T08:19:09;99757.44;;;29.23;48.05
58056;BME280;53159;55.152;36.614;2022-08-07T08:21:43;99751.88;;;29.28;46.53
58056;BME280;53159;55.152;36.614;2022-08-07T08:24:36;99751.81;;;29.30;46.57
58056;BME280;53159;55.152;36.614;2022-08-07T08:27:25;99746.66;;;29.25;45.96
58056;BME280;53159;55.152;36.614;2022-08-07T08:29:57;99752.81;;;29.09;44.95
58056;BME280;53159;55.152;36.614;2022-08-07T08:32:35;99748.06;;;28.97;46.56
58056;BME280;53159;55.152;36.614;2022-08-07T08:35:07;99749.03;;;28.96;45.75
58056;BME280;53159;55.152;36.614;2022-08-07T08:37:36;99748.78;;;28.83;45.87
58056;BME280;53159;55.152;36.614;2022-08-07T08:40:09;99747.84;;;28.84;46.70
58056;BME280;53159;55.152;36.614;2022-08-07T08:42:44;99747.38;;;28.93;47.48
58056;BME280;53159;55.152;36.614;2022-08-07T08:45:25;99741.06;;;28.94;46.46
58056;BME280;53159;55.152;36.614;2022-08-07T08:50:55;99750.19;;;29.08;46.83
58056;BME280;53159;55.152;36.614;2022-08-07T08:53:32;99742.44;;;29.21;47.46
58056;BME280;53159;55.152;36.614;2022-08-07T08:56:07;99742.34;;;29.22;45.56
58056;BME280;53159;55.152;36.614;2022-08-07T09:07:30;99734.16;;;29.61;43.85
58056;BME280;53159;55.152;36.614;2022-08-07T09:13:10;99728.75;;;29.78;43.45
58056;BME280;53159;55.152;36.614;2022-08-07T09:21:48;99719.38;;;29.87;42.02
58056;BME280;53159;55.152;36.614;2022-08-07T09:27:29;99716.38;;;29.93;42.31
58056;BME280;53159;55.152;36.614;2022-08-07T09:30:07;99726.09;;;29.78;41.64
58056;BME280;53159;55.152;36.614;2022-08-07T09:35:50;99703.56;;;29.82;41.65
58056;BME280;53159;55.152;36.614;2022-08-07T09:42:03;99705.91;;;29.88;41.03
58056;BME280;53159;55.152;36.614;2022-08-07T09:44:57;99703.22;;;29.88;41.38
58056;BME280;53159;55.152;36.614;2022-08-07T09:47:45;99701.13;;;29.95;41.26
58056;BME280;53159;55.152;36.614;2022-08-07T09:50:29;99690.31;;;29.97;42.27
58056;BME280;53159;55.152;36.614;2022-08-07T09:53:04;99687.31;;;30.03;41.70
58056;BME280;53159;55.152;36.614;2022-08-07T10:03:50;99690.66;;;30.22;40.36
58056;BME280;53159;55.152;36.614;2022-08-07T10:09:36;99689.88;;;30.36;40.96
58056;BME280;53159;55.152;36.614;2022-08-07T10:20:27;99671.91;;;30.38;39.87
58056;BME280;53159;55.152;36.614;2022-08-07T10:28:30;99672.00;;;30.53;40.67
58056;BME280;53159;55.152;36.614;2022-08-07T10:34:17;99664.94;;;30.20;37.79
58056;BME280;53159;55.152;36.614;2022-08-07T10:42:39;99647.84;;;30.22;37.62
58056;BME280;53159;55.152;36.614;2022-08-07T10:45:14;99653.19;;;30.22;37.96
58056;BME280;53159;55.152;36.614;2022-08-07T10:50:46;99636.91;;;30.11;36.48
58056;BME280;53159;55.152;36.614;2022-08-07T10:53:27;99638.88;;;30.23;38.29
58056;BME280;53159;55.152;36.614;2022-08-07T10:56:03;99641.53;;;30.23;38.21
58056;BME280;53159;55.152;36.614;2022-08-07T11:01:34;99625.28;;;30.27;37.04
58056;BME280;53159;55.152;36.614;2022-08-07T11:04:13;99632.97;;;30.33;37.57
58056;BME280;53159;55.152;36.614;2022-08-07T11:09:56;99628.66;;;30.30;38.12
58056;BME280;53159;55.152;36.614;2022-08-07T11:12:39;99632.13;;;30.32;38.47
58056;BME280;53159;55.152;36.614;2022-08-07T11:15:12;99631.50;;;30.43;38.05
58056;BME280;53159;55.152;36.614;2022-08-07T11:17:53;99632.44;;;30.58;35.87
58056;BME280;53159;55.152;36.614;2022-08-07T11:20:36;99642.78;;;30.64;36.21
58056;BME280;53159;55.152;36.614;2022-08-07T11:26:42;99659.78;;;30.94;35.24
58056;BME280;53159;55.152;36.614;2022-08-07T11:29:32;99651.56;;;30.97;36.04
58056;BME280;53159;55.152;36.614;2022-08-07T11:32:15;99666.50;;;31.01;35.82
58056;BME280;53159;55.152;36.614;2022-08-07T11:35:14;99670.97;;;30.86;35.09
58056;BME280;53159;55.152;36.614;2022-08-07T11:40:32;99668.84;;;30.77;35.46
58056;BME280;53159;55.152;36.614;2022-08-07T12:00:18;99724.41;;;27.76;52.79
58056;BME280;53159;55.152;36.614;2022-08-07T12:03:21;99734.09;;;26.74;56.79
58056;BME280;53159;55.152;36.614;2022-08-07T12:08:25;99746.81;;;25.98;61.06
58056;BME280;53159;55.152;36.614;2022-08-07T12:13:47;99766.56;;;25.67;61.97
58056;BME280;53159;55.152;36.614;2022-08-07T12:17:10;99779.69;;;25.46;63.61
58056;BME280;53159;55.152;36.614;2022-08-07T12:19:54;99784.78;;;25.25;63.69
58056;BME280;53159;55.152;36.614;2022-08-07T12:31:23;99807.81;;;24.98;62.83
58056;BME280;53159;55.152;36.614;2022-08-07T12:33:53;99819.31;;;24.99;62.81
58056;BME280;53159;55.152;36.614;2022-08-07T12:36:23;99821.59;;;25.09;63.60
58056;BME280;53159;55.152;36.614;2022-08-07T12:38:51;99818.94;;;25.09;63.54
58056;BME280;53159;55.152;36.614;2022-08-07T12:41:24;99818.16;;;25.06;64.26
58056;BME280;53159;55.152;36.614;2022-08-07T12:43:54;99812.47;;;25.18;63.62
58056;BME280;53159;55.152;36.614;2022-08-07T12:47:14;99804.72;;;24.84;62.86
58056;BME280;53159;55.152;36.614;2022-08-07T12:51:58;99800.50;;;24.78;63.80
58056;BME280;53159;55.152;36.614;2022-08-07T12:54:39;99795.44;;;24.97;62.51
58056;BME280;53159;55.152;36.614;2022-08-07T12:57:11;99802.63;;;24.95;62.82
58056;BME280;53159;55.152;36.614;2022-08-07T12:59:41;99797.53;;;24.87;63.20
58056;BME280;53159;55.152;36.614;2022-08-07T13:05:53;99780.00;;;24.25;65.17
58056;BME280;53159;55.152;36.614;2022-08-07T13:11:45;99780.28;;;24.44;65.30
58056;BME280;53159;55.152;36.614;2022-08-07T13:14:30;99769.75;;;24.12;65.92
58056;BME280;53159;55.152;36.614;2022-08-07T13:17:16;99760.56;;;24.24;66.26
58056;BME280;53159;55.152;36.614;2022-08-07T13:20:18;99765.47;;;24.07;66.98
58056;BME280;53159;55.152;36.614;2022-08-07T13:22:59;99758.28;;;24.12;67.00
58056;BME280;53159;55.152;36.614;2022-08-07T13:25:37;99763.59;;;24.12;66.27
58056;BME280;53159;55.152;36.614;2022-08-07T13:28:43;99755.81;;;24.06;66.51
58056;BME280;53159;55.152;36.614;2022-08-07T13:31:35;99765.63;;;24.02;67.59
58056;BME280;53159;55.152;36.614;2022-08-07T13:36:58;99753.97;;;23.76;67.99
58056;BME280;53159;55.152;36.614;2022-08-07T13:42:17;99748.91;;;24.00;68.01
58056;BME280;53159;55.152;36.614;2022-08-07T13:44:48;99764.69;;;24.03;68.36
58056;BME280;53159;55.152;36.614;2022-08-07T13:47:20;99759.22;;;24.09;68.05
58056;BME280;53159;55.152;36.614;2022-08-07T13:49:53;99766.91;;;24.19;67.55
58056;BME280;53159;55.152;36.614;2022-08-07T13:52:24;99760.69;;;24.20;68.00
58056;BME280;53159;55.152;36.614;2022-08-07T13:54:54;99764.63;;;24.06;68.23
58056;BME280;53159;55.152;36.614;2022-08-07T13:57:27;99767.41;;;24.02;68.30
58056;BME280;53159;55.152;36.614;2022-08-07T13:59:55;99776.69;;;24.17;68.91
58056;BME280;53159;55.152;36.614;2022-08-07T14:02:27;99780.34;;;24.12;68.67
58056;BME280;53159;55.152;36.614;2022-08-07T14:05:00;99780.72;;;24.00;69.15
58056;BME280;53159;55.152;36.614;2022-08-07T14:07:30;99764.63;;;23.73;70.00
58056;BME280;53159;55.152;36.614;2022-08-07T14:09:59;99771.47;;;23.82;69.24
58056;BME280;53159;55.152;36.614;2022-08-07T14:12:35;99761.44;;;23.95;69.23
58056;BME280;53159;55.152;36.614;2022-08-07T14:15:04;99775.63;;;23.92;69.29
58056;BME280;53159;55.152;36.614;2022-08-07T14:17:35;99779.22;;;23.90;69.58
58056;BME280;53159;55.152;36.614;2022-08-07T14:20:14;99781.78;;;23.93;70.39
58056;BME280;53159;55.152;36.614;2022-08-07T14:22:50;99784.19;;;24.02;69.96
58056;BME280;53159;55.152;36.614;2022-08-07T14:25:24;99786.63;;;24.10;69.56
58056;BME280;53159;55.152;36.614;2022-08-07T14:27:54;99791.22;;;24.03;69.99
58056;BME280;53159;55.152;36.614;2022-08-07T14:30:23;99785.38;;;24.22;70.55
58056;BME280;53159;55.152;36.614;2022-08-07T14:32:57;99790.53;;;24.26;69.94
58056;BME280;53159;55.152;36.614;2022-08-07T14:35:31;99788.66;;;24.30;70.02
58056;BME280;53159;55.152;36.614;2022-08-07T14:37:59;99792.22;;;24.29;70.19
58056;BME280;53159;55.152;36.614;2022-08-07T14:40:27;99788.00;;;24.23;68.04
58056;BME280;53159;55.152;36.614;2022-08-07T14:43:09;99790.66;;;24.23;68.33
58056;BME280;53159;55.152;36.614;2022-08-07T14:45:44;99794.81;;;24.32;68.62
58056;BME280;53159;55.152;36.614;2022-08-07T14:48:14;99793.72;;;24.38;69.32
58056;BME280;53159;55.152;36.614;2022-08-07T14:50:57;99798.72;;;24.49;68.93
58056;BME280;53159;55.152;36.614;2022-08-07T14:53:30;99802.25;;;24.49;68.92
58056;BME280;53159;55.152;36.614;2022-08-07T14:56:04;99813.59;;;24.54;68.83
58056;BME280;53159;55.152;36.614;2022-08-07T14:58:36;99820.84;;;24.47;68.67
58056;BME280;53159;55.152;36.614;2022-08-07T15:01:06;99816.06;;;24.60;69.03
58056;BME280;53159;55.152;36.614;2022-08-07T15:03:34;99823.88;;;24.65;68.17
58056;BME280;53159;55.152;36.614;2022-08-07T15:06:03;99823.84;;;24.67;68.74
58056;BME280;53159;55.152;36.614;2022-08-07T15:08:34;99829.13;;;24.68;69.70
58056;BME280;53159;55.152;36.614;2022-08-07T15:11:05;99839.72;;;24.68;70.16
58056;BME280;53159;55.152;36.614;2022-08-07T15:13:44;99840.63;;;24.67;69.32
58056;BME280;53159;55.152;36.614;2022-08-07T15:16:19;99833.59;;;24.66;69.66
58056;BME280;53159;55.152;36.614;2022-08-07T15:18:54;99840.78;;;24.61;69.94
58056;BME280;53159;55.152;36.614;2022-08-07T15:21:27;99836.44;;;24.58;69.72
58056;BME280;53159;55.152;36.614;2022-08-07T15:24:04;99838.50;;;24.49;70.40
58056;BME280;53159;55.152;36.614;2022-08-07T15:26:41;99846.66;;;24.42;70.46
58056;BME280;53159;55.152;36.614;2022-08-07T15:29:15;99844.91;;;24.41;70.45
58056;BME280;53159;55.152;36.614;2022-08-07T15:31:47;99853.28;;;24.27;70.86
58056;BME280;53159;55.152;36.614;2022-08-07T15:34:16;99848.94;;;24.25;71.45
58056;BME280;53159;55.152;36.614;2022-08-07T15:36:45;99838.50;;;24.19;70.96
58056;BME280;53159;55.152;36.614;2022-08-07T15:39:15;99847.50;;;24.13;71.40
58056;BME280;53159;55.152;36.614;2022-08-07T15:42:08;99852.00;;;24.09;72.27
58056;BME280;53159;55.152;36.614;2022-08-07T15:44:56;99863.78;;;23.99;71.79
58056;BME280;53159;55.152;36.614;2022-08-07T15:47:27;99854.94;;;24.00;72.96
58056;BME280;53159;55.152;36.614;2022-08-07T15:49:58;99857.63;;;23.98;74.65
58056;BME280;53159;55.152;36.614;2022-08-07T15:52:29;99847.06;;;23.97;74.30
58056;BME280;53159;55.152;36.614;2022-08-07T15:54:58;99849.09;;;23.86;73.69
58056;BME280;53159;55.152;36.614;2022-08-07T15:57:28;99849.09;;;23.86;76.21